Terminal Aerodrome Forecast
Issued by NWS

Home | Current Version | Previous Version | Graphics & Text | Print | Product List | Glossary On
Versions: 1 2 3 4 5 6 7 8 9 10 11 12 13 14 15 16 17
000
FTUS43 KIWX 011520 AAE
TAFSBN
TAF AMD
KSBN 011520Z 0115/0212 30010KT 1/2SM FG VCSH OVC003
     FM011700 31015G25KT 2SM BR VCSH OVC006
     FM012000 31019G27KT 6SM -RA OVC010
     FM020000 31016G24KT 4SM -SN OVC020
     FM020600 31012KT P6SM SCT020 OVC045=

USA.gov is the U.S. government's official web portal to all federal, state and local government web resources and services.